createdAt,value
2022-12-14T00:01:23.176Z,93646.13
2022-12-14T00:03:53.155Z,93654.03
2022-12-14T00:06:25.121Z,93650.56
2022-12-14T00:08:52.918Z,93659.03
2022-12-14T00:11:19.801Z,93660.44
2022-12-14T00:13:48.839Z,93649.09
2022-12-14T00:16:17.761Z,93654.81
2022-12-14T00:18:45.005Z,93640.44
2022-12-14T00:21:13.468Z,93641.81
2022-12-14T00:23:42.160Z,93633.41
2022-12-14T00:26:19.983Z,93639.47
2022-12-14T00:28:48.210Z,93640.16
2022-12-14T00:31:15.090Z,93639.72
2022-12-14T00:33:42.038Z,93629.16
2022-12-14T00:36:10.331Z,93637.19
2022-12-14T00:38:37.054Z,93629.69
2022-12-14T00:41:03.681Z,93637.41
2022-12-14T00:43:30.258Z,93629.44
2022-12-14T00:45:56.814Z,93626.47
2022-12-14T00:48:25.202Z,93627.06
2022-12-14T00:50:53.178Z,93626.03
2022-12-14T00:53:20.101Z,93634.81
2022-12-14T00:55:49.336Z,93635.59
2022-12-14T00:58:18.533Z,93625.91
2022-12-14T01:00:45.461Z,93626.75
2022-12-14T01:03:12.583Z,93620.44
2022-12-14T01:05:39.549Z,93621.84
2022-12-14T01:08:06.874Z,93607.63
2022-12-14T01:10:33.538Z,93611.00
2022-12-14T01:13:00.122Z,93613.59
2022-12-14T01:15:26.713Z,93619.91
2022-12-14T01:17:53.505Z,93631.41
2022-12-14T01:20:20.017Z,93634.06
2022-12-14T01:22:46.505Z,93628.69
2022-12-14T01:25:13.043Z,93630.66
2022-12-14T01:27:39.551Z,93623.84
2022-12-14T01:30:06.533Z,93620.56
2022-12-14T01:32:34.639Z,93624.16
2022-12-14T01:35:01.244Z,93631.69
2022-12-14T01:37:27.781Z,93633.06
2022-12-14T01:39:54.571Z,93626.34
2022-12-14T01:42:21.099Z,93613.41
2022-12-14T01:44:52.299Z,93611.47
2022-12-14T01:47:29.339Z,93611.34
2022-12-14T01:50:02.318Z,93611.03
2022-12-14T01:53:19.675Z,93613.53
2022-12-14T01:55:56.561Z,93616.03
2022-12-14T01:58:25.243Z,93623.59
2022-12-14T02:00:56.892Z,93617.69
2022-12-14T02:03:40.271Z,93601.16
2022-12-14T02:06:13.959Z,93595.78
2022-12-14T02:08:42.818Z,93601.69
2022-12-14T02:11:11.980Z,93589.47
2022-12-14T02:13:40.684Z,93589.56
2022-12-14T02:16:10.221Z,93583.44
2022-12-14T02:18:37.065Z,93584.25
2022-12-14T02:21:03.736Z,93602.44
2022-12-14T02:23:52.019Z,93599.63
2022-12-14T02:26:47.292Z,93591.22
2022-12-14T02:29:32.302Z,93589.81
2022-12-14T02:32:14.344Z,93590.44
2022-12-14T02:35:09.838Z,93583.25
2022-12-14T02:37:53.916Z,93580.25
2022-12-14T02:40:33.183Z,93584.50
2022-12-14T02:43:14.893Z,93575.00
2022-12-14T02:45:44.422Z,93563.97
2022-12-14T02:48:16.530Z,93570.25
2022-12-14T02:51:11.883Z,93561.34
2022-12-14T02:53:46.534Z,93566.72
2022-12-14T02:56:18.053Z,93555.31
2022-12-14T02:58:47.211Z,93553.84
2022-12-14T03:01:17.109Z,93552.16
2022-12-14T03:03:46.150Z,93542.56
2022-12-14T03:06:16.998Z,93541.53
2022-12-14T03:08:44.390Z,93530.38
2022-12-14T03:11:14.802Z,93517.22
2022-12-14T03:13:42.962Z,93514.06
2022-12-14T03:16:14.353Z,93522.53
2022-12-14T03:19:17.465Z,93519.75
2022-12-14T03:21:48.102Z,93521.25
2022-12-14T03:24:18.142Z,93527.81
2022-12-14T03:26:51.616Z,93509.25
2022-12-14T03:29:21.833Z,93511.50
2022-12-14T03:32:04.170Z,93509.25
2022-12-14T03:34:52.544Z,93506.53
2022-12-14T03:37:27.792Z,93502.00
2022-12-14T03:39:54.742Z,93502.22
2022-12-14T03:42:27.816Z,93508.94
2022-12-14T03:45:21.034Z,93517.47
2022-12-14T03:48:19.937Z,93524.91
2022-12-14T03:50:53.564Z,93514.50
2022-12-14T03:53:29.656Z,93511.22
2022-12-14T03:56:04.919Z,93501.38
2022-12-14T03:58:42.850Z,93506.63
2022-12-14T04:01:33.328Z,93505.16
2022-12-14T04:04:04.057Z,93507.88
2022-12-14T04:06:35.280Z,93514.81
2022-12-14T04:09:23.873Z,93515.41
2022-12-14T04:12:01.560Z,93505.03
2022-12-14T04:14:55.412Z,93499.09
2022-12-14T04:17:43.381Z,93496.72
2022-12-14T04:20:14.961Z,93491.81
2022-12-14T04:22:45.563Z,93482.59
2022-12-14T04:25:25.873Z,93481.25
2022-12-14T04:28:06.130Z,93481.47
2022-12-14T04:30:35.444Z,93478.28
2022-12-14T04:33:05.941Z,93483.19
2022-12-14T04:35:36.893Z,93471.69
2022-12-14T04:38:36.390Z,93469.28
2022-12-14T04:41:09.212Z,93472.81
2022-12-14T04:43:39.068Z,93466.22
2022-12-14T04:46:08.764Z,93458.09
2022-12-14T04:49:02.175Z,93456.75
2022-12-14T04:51:36.620Z,93468.47
2022-12-14T04:54:11.852Z,93469.72
2022-12-14T04:56:46.505Z,93458.09
2022-12-14T04:59:14.503Z,93464.13
2022-12-14T05:01:49.799Z,93463.56
2022-12-14T05:04:25.347Z,93456.59
2022-12-14T05:07:11.498Z,93449.91
2022-12-14T05:10:00.741Z,93465.94
2022-12-14T05:12:34.509Z,93468.34
2022-12-14T05:15:14.362Z,93465.94
2022-12-14T05:17:41.740Z,93460.38
2022-12-14T05:20:20.193Z,93462.22
2022-12-14T05:22:49.568Z,93453.06
2022-12-14T05:25:17.035Z,93452.38
2022-12-14T05:27:43.638Z,93448.00
2022-12-14T05:30:10.933Z,93453.63
2022-12-14T05:32:37.529Z,93457.94
2022-12-14T05:35:04.857Z,93446.44
2022-12-14T05:37:32.044Z,93449.31
2022-12-14T05:39:58.741Z,93452.28
2022-12-14T05:42:25.290Z,93454.09
2022-12-14T05:44:51.862Z,93448.69
2022-12-14T05:47:18.637Z,93446.97
2022-12-14T05:49:45.129Z,93461.94
2022-12-14T05:52:11.727Z,93462.91
2022-12-14T05:54:38.269Z,93443.06
2022-12-14T05:57:04.813Z,93439.75
2022-12-14T05:59:31.618Z,93445.47
2022-12-14T06:01:58.206Z,93447.59
2022-12-14T06:04:24.915Z,93451.13
2022-12-14T06:06:51.785Z,93448.84
2022-12-14T06:09:19.406Z,93446.19
2022-12-14T06:11:46.566Z,93452.78
2022-12-14T06:14:13.708Z,93442.72
2022-12-14T06:16:41.551Z,93457.66
2022-12-14T06:19:08.058Z,93459.53
2022-12-14T06:21:36.603Z,93465.78
2022-12-14T06:24:04.172Z,93460.78
2022-12-14T06:26:32.991Z,93459.16
2022-12-14T06:28:59.910Z,93453.94
2022-12-14T06:31:29.618Z,93443.84
2022-12-14T06:33:58.678Z,93457.97
2022-12-14T06:36:27.778Z,93452.16
2022-12-14T06:38:55.190Z,93461.97
2022-12-14T06:41:23.024Z,93457.78
2022-12-14T06:43:50.415Z,93452.75
2022-12-14T06:46:20.044Z,93455.94
2022-12-14T06:48:55.116Z,93456.06
2022-12-14T06:51:23.096Z,93452.16
2022-12-14T06:53:53.836Z,93449.84
2022-12-14T06:56:21.664Z,93443.28
2022-12-14T06:58:49.026Z,93466.50
2022-12-14T07:01:20.631Z,93471.25
2022-12-14T07:03:53.834Z,93467.59
2022-12-14T07:06:24.258Z,93474.38
2022-12-14T07:08:52.938Z,93486.81
2022-12-14T07:11:21.568Z,93479.59
2022-12-14T07:13:48.739Z,93483.69
2022-12-14T07:16:19.174Z,93485.34
2022-12-14T07:18:45.980Z,93485.03
2022-12-14T07:21:15.929Z,93487.75
2022-12-14T07:23:44.317Z,93481.25
2022-12-14T07:26:16.052Z,93489.13
2022-12-14T07:28:45.184Z,93479.38
2022-12-14T07:31:17.744Z,93472.34
2022-12-14T07:33:44.865Z,93487.97
2022-12-14T07:36:14.376Z,93491.81
2022-12-14T07:38:42.044Z,93489.75
2022-12-14T07:41:17.650Z,93491.22
2022-12-14T07:43:50.063Z,93501.78
2022-12-14T07:46:18.989Z,93490.63
2022-12-14T07:48:47.157Z,93494.75
2022-12-14T07:51:16.426Z,93501.34
2022-12-14T07:53:43.366Z,93486.81
2022-12-14T07:56:15.262Z,93484.44
2022-12-14T07:58:42.197Z,93477.13
2022-12-14T08:01:15.619Z,93475.31
2022-12-14T08:03:45.671Z,93474.25
2022-12-14T08:06:13.141Z,93484.97
2022-12-14T08:08:40.072Z,93484.91
2022-12-14T08:11:07.875Z,93488.94
2022-12-14T08:13:34.675Z,93500.78
2022-12-14T08:16:11.954Z,93499.66
2022-12-14T08:18:38.759Z,93493.28
2022-12-14T08:21:06.749Z,93492.84
2022-12-14T08:23:34.380Z,93499.13
2022-12-14T08:26:01.831Z,93506.63
2022-12-14T08:28:30.473Z,93503.03
2022-12-14T08:30:57.812Z,93507.09
2022-12-14T08:33:24.345Z,93506.34
2022-12-14T08:35:51.199Z,93509.78
2022-12-14T08:38:17.755Z,93511.50
2022-12-14T08:40:44.386Z,93509.06
2022-12-14T08:43:11.015Z,93497.34
2022-12-14T08:45:37.849Z,93500.09
2022-12-14T08:48:04.503Z,93510.00
2022-12-14T08:50:31.537Z,93494.38
2022-12-14T08:52:58.098Z,93496.78
2022-12-14T08:55:29.160Z,93492.31
2022-12-14T08:57:56.942Z,93494.28
2022-12-14T09:00:23.601Z,93468.81
2022-12-14T09:02:51.276Z,93460.88
2022-12-14T09:05:18.250Z,93472.75
2022-12-14T09:07:44.861Z,93500.34
2022-12-14T09:10:11.685Z,93519.81
2022-12-14T09:12:38.596Z,93528.84
2022-12-14T09:15:05.789Z,93526.94
2022-12-14T09:17:32.865Z,93510.94
2022-12-14T09:19:59.469Z,93508.91
2022-12-14T09:22:26.151Z,93506.22
2022-12-14T09:24:52.754Z,93521.34
2022-12-14T09:27:19.225Z,93508.13
2022-12-14T09:29:45.685Z,93514.16
2022-12-14T09:32:12.681Z,93529.94
2022-12-14T09:34:39.257Z,93545.69
2022-12-14T09:37:06.161Z,93540.47
2022-12-14T09:39:32.874Z,93538.97
2022-12-14T09:42:09.390Z,93545.97
2022-12-14T09:45:20.507Z,93539.44
2022-12-14T09:48:23.094Z,93532.50
2022-12-14T09:50:52.457Z,93544.75
2022-12-14T09:53:20.474Z,93538.31
2022-12-14T09:55:49.968Z,93543.41
2022-12-14T09:58:20.909Z,93535.25
2022-12-14T10:01:05.884Z,93532.97
2022-12-14T10:03:58.075Z,93526.22
2022-12-14T10:06:33.321Z,93541.91
2022-12-14T10:09:20.828Z,93526.19
2022-12-14T10:12:02.566Z,93528.63
2022-12-14T10:14:55.246Z,93520.53
2022-12-14T10:17:27.835Z,93517.19
2022-12-14T10:19:56.347Z,93519.41
2022-12-14T10:22:29.564Z,93527.38
2022-12-14T10:25:17.579Z,93532.53
2022-12-14T10:28:13.439Z,93515.91
2022-12-14T10:30:44.061Z,93523.25
2022-12-14T10:33:27.023Z,93519.19
2022-12-14T10:36:12.105Z,93522.28
2022-12-14T10:38:58.400Z,93529.56
2022-12-14T10:41:53.023Z,93521.16
2022-12-14T10:44:50.143Z,93514.94
2022-12-14T10:47:27.521Z,93506.97
2022-12-14T10:50:15.161Z,93494.59
2022-12-14T10:52:42.575Z,93494.75
2022-12-14T10:55:33.378Z,93491.03
2022-12-14T10:58:00.357Z,93499.00
2022-12-14T11:00:27.374Z,93498.44
2022-12-14T11:02:56.194Z,93504.81
2022-12-14T11:05:31.068Z,93503.88
2022-12-14T11:08:01.024Z,93497.00
2022-12-14T11:10:31.891Z,93507.97
2022-12-14T11:13:13.629Z,93517.25
2022-12-14T11:15:47.358Z,93517.19
2022-12-14T11:18:16.963Z,93512.66
2022-12-14T11:20:51.294Z,93499.84
2022-12-14T11:23:38.780Z,93500.47
2022-12-14T11:26:18.629Z,93496.34
2022-12-14T11:28:56.421Z,93498.03
2022-12-14T11:31:32.659Z,93483.34
2022-12-14T11:34:00.141Z,93487.50
2022-12-14T11:36:38.033Z,93485.38
2022-12-14T11:39:13.661Z,93480.75
2022-12-14T11:41:44.952Z,93482.63
2022-12-14T11:44:26.404Z,93488.66
2022-12-14T11:46:57.729Z,93479.34
2022-12-14T11:49:39.709Z,93479.44
2022-12-14T11:52:13.680Z,93480.44
2022-12-14T11:54:42.734Z,93488.84
2022-12-14T11:57:31.675Z,93484.22
2022-12-14T12:00:05.044Z,93480.00
2022-12-14T12:02:48.003Z,93480.53
2022-12-14T12:05:17.522Z,93489.63
2022-12-14T12:07:51.201Z,93471.44
2022-12-14T12:10:44.326Z,93472.75
2022-12-14T12:13:35.113Z,93483.41
2022-12-14T12:16:05.047Z,93477.53
2022-12-14T12:19:11.271Z,93480.25
2022-12-14T12:21:41.747Z,93482.91
2022-12-14T12:24:31.243Z,93498.84
2022-12-14T12:27:07.086Z,93487.66
2022-12-14T12:29:38.115Z,93486.66
2022-12-14T12:32:33.781Z,93488.75
2022-12-14T12:35:12.497Z,93493.63
2022-12-14T12:37:46.246Z,93491.06
2022-12-14T12:40:32.815Z,93481.03
2022-12-14T12:43:06.574Z,93499.03
2022-12-14T12:45:41.309Z,93488.56
2022-12-14T12:48:18.719Z,93491.44
2022-12-14T12:50:50.265Z,93489.91
2022-12-14T12:53:26.785Z,93500.06
2022-12-14T12:56:06.070Z,93498.84
2022-12-14T12:58:34.397Z,93513.63
2022-12-14T13:01:05.597Z,93520.28
2022-12-14T13:03:42.559Z,93512.00
2022-12-14T13:06:17.550Z,93514.16
2022-12-14T13:08:49.673Z,93509.94
2022-12-14T13:11:27.331Z,93519.75
2022-12-14T13:13:58.642Z,93523.44
2022-12-14T13:16:31.570Z,93532.44
2022-12-14T13:21:52.156Z,93546.22
2022-12-14T13:24:20.643Z,93535.75
2022-12-14T13:27:05.695Z,93541.34
2022-12-14T13:29:50.837Z,93529.88
2022-12-14T13:32:37.134Z,93524.16
2022-12-14T13:35:04.241Z,93523.13
2022-12-14T13:38:04.378Z,93533.59
2022-12-14T13:40:54.261Z,93544.53
2022-12-14T13:43:20.702Z,93553.06
2022-12-14T13:45:50.980Z,93545.25
2022-12-14T13:48:24.532Z,93547.59
2022-12-14T13:51:02.170Z,93537.59
2022-12-14T13:53:50.450Z,93535.16
2022-12-14T13:56:33.218Z,93543.34
2022-12-14T13:59:07.021Z,93545.19
2022-12-14T14:01:48.791Z,93547.91
2022-12-14T14:04:20.430Z,93547.91
2022-12-14T14:06:53.025Z,93538.84
2022-12-14T14:09:28.962Z,93555.34
2022-12-14T14:12:17.658Z,93562.66
2022-12-14T14:15:01.621Z,93553.78
2022-12-14T14:17:36.958Z,93567.56
2022-12-14T14:20:34.912Z,93566.03
2022-12-14T14:23:13.646Z,93560.28
2022-12-14T14:25:43.187Z,93555.00
2022-12-14T14:28:16.316Z,93554.31
2022-12-14T14:30:54.335Z,93564.22
2022-12-14T14:33:48.920Z,93572.72
2022-12-14T14:36:26.126Z,93575.84
2022-12-14T14:38:54.634Z,93565.44
2022-12-14T14:41:40.155Z,93571.16
2022-12-14T14:44:23.377Z,93573.81
2022-12-14T14:46:50.586Z,93577.63
2022-12-14T14:49:49.836Z,93576.78
2022-12-14T14:52:38.163Z,93592.00
2022-12-14T14:59:19.349Z,93593.59
2022-12-14T15:01:53.864Z,93592.16
2022-12-14T15:04:27.933Z,93592.81
2022-12-14T15:06:57.873Z,93596.34
2022-12-14T15:09:38.760Z,93597.19
2022-12-14T15:12:31.270Z,93590.31
2022-12-14T15:15:03.657Z,93597.00
2022-12-14T15:17:33.002Z,93593.56
2022-12-14T15:20:01.683Z,93584.91
2022-12-14T15:22:38.168Z,93594.91
2022-12-14T15:25:24.478Z,93597.84
2022-12-14T15:27:52.239Z,93592.66
2022-12-14T15:30:23.033Z,93596.06
2022-12-14T15:33:02.884Z,93589.53
2022-12-14T15:35:34.977Z,93587.75
2022-12-14T15:38:39.172Z,93587.13
2022-12-14T15:41:13.886Z,93592.25
2022-12-14T15:43:56.483Z,93588.22
2022-12-14T15:46:39.312Z,93589.13
2022-12-14T15:49:07.706Z,93588.19
2022-12-14T15:52:21.861Z,93595.34
2022-12-14T15:54:51.264Z,93593.66
2022-12-14T15:57:19.272Z,93600.81
2022-12-14T15:59:47.447Z,93597.06
2022-12-14T16:02:26.608Z,93611.13
2022-12-14T16:04:56.328Z,93611.47
2022-12-14T16:07:30.349Z,93609.84
2022-12-14T16:10:01.914Z,93606.38
2022-12-14T16:12:45.129Z,93606.38
2022-12-14T16:15:24.334Z,93598.47
2022-12-14T16:17:57.533Z,93611.53
2022-12-14T16:20:30.109Z,93623.28
2022-12-14T16:23:15.044Z,93610.28
2022-12-14T16:25:58.090Z,93615.81
2022-12-14T16:28:36.817Z,93625.22
2022-12-14T16:31:07.615Z,93602.72
2022-12-14T16:33:35.948Z,93604.19
2022-12-14T16:36:05.528Z,93608.41
2022-12-14T16:38:39.405Z,93614.13
2022-12-14T16:41:06.322Z,93598.78
2022-12-14T16:43:38.027Z,93595.66
2022-12-14T16:46:04.643Z,93604.28
2022-12-14T16:48:33.332Z,93603.47
2022-12-14T16:51:18.696Z,93597.06
2022-12-14T16:53:53.620Z,93606.13
2022-12-14T16:56:45.381Z,93613.78
2022-12-14T16:59:22.665Z,93614.88
2022-12-14T17:01:52.674Z,93622.03
2022-12-14T17:04:22.163Z,93607.75
2022-12-14T17:06:57.066Z,93615.13
2022-12-14T17:09:28.359Z,93613.56
2022-12-14T17:11:59.398Z,93613.94
2022-12-14T17:14:27.641Z,93612.75
2022-12-14T17:17:00.079Z,93617.19
2022-12-14T17:19:36.562Z,93623.19
2022-12-14T17:22:24.647Z,93618.22
2022-12-14T17:24:51.388Z,93623.59
2022-12-14T17:27:21.655Z,93626.44
2022-12-14T17:29:48.811Z,93624.84
2022-12-14T17:32:16.930Z,93622.03
2022-12-14T17:34:50.998Z,93615.06
2022-12-14T17:37:19.901Z,93601.47
2022-12-14T17:39:46.633Z,93614.63
2022-12-14T17:42:15.153Z,93615.41
2022-12-14T17:44:42.895Z,93613.72
2022-12-14T17:47:15.567Z,93604.69
2022-12-14T17:49:42.148Z,93600.88
2022-12-14T17:52:18.364Z,93601.91
2022-12-14T17:54:45.116Z,93602.72
2022-12-14T17:57:19.916Z,93592.59
2022-12-14T17:59:47.708Z,93583.13
2022-12-14T18:02:30.550Z,93592.91
2022-12-14T18:04:57.359Z,93589.06
2022-12-14T18:07:23.910Z,93583.25
2022-12-14T18:09:50.779Z,93582.75
2022-12-14T18:12:25.239Z,93581.81
2022-12-14T18:14:52.279Z,93574.88
2022-12-14T18:17:19.595Z,93590.69
2022-12-14T18:19:47.952Z,93587.09
2022-12-14T18:22:18.407Z,93596.28
2022-12-14T18:24:47.473Z,93609.00
2022-12-14T18:27:23.194Z,93595.31
2022-12-14T18:30:16.312Z,93600.31
2022-12-14T18:32:45.666Z,93599.44
2022-12-14T18:35:24.326Z,93607.75
2022-12-14T18:37:51.367Z,93615.78
2022-12-14T18:40:20.965Z,93616.81
2022-12-14T18:42:47.465Z,93619.59
2022-12-14T18:45:22.305Z,93622.25
2022-12-14T18:47:49.186Z,93625.16
2022-12-14T18:50:16.342Z,93615.94
2022-12-14T18:52:43.602Z,93628.16
2022-12-14T18:55:22.645Z,93633.47
2022-12-14T18:57:51.173Z,93632.16
2022-12-14T19:00:20.320Z,93629.66
2022-12-14T19:02:49.575Z,93637.97
2022-12-14T19:05:21.504Z,93634.19
2022-12-14T19:07:51.305Z,93640.50
2022-12-14T19:10:22.718Z,93631.09
2022-12-14T19:12:52.579Z,93625.91
2022-12-14T19:15:24.436Z,93624.47
2022-12-14T19:17:51.544Z,93629.69
2022-12-14T19:20:19.022Z,93629.81
2022-12-14T19:22:45.983Z,93633.09
2022-12-14T19:25:13.011Z,93624.19
2022-12-14T19:28:15.444Z,93635.41
2022-12-14T19:30:32.523Z,93630.88
2022-12-14T19:33:19.377Z,93616.00
2022-12-14T19:35:46.281Z,93635.09
2022-12-14T19:38:13.953Z,93629.19
2022-12-14T19:40:40.494Z,93628.78
2022-12-14T19:43:06.987Z,93625.81
2022-12-14T19:45:33.487Z,93634.38
2022-12-14T19:48:00.374Z,93634.13
2022-12-14T19:50:26.982Z,93636.38
2022-12-14T19:52:53.507Z,93635.16
2022-12-14T19:58:00.430Z,93633.41
2022-12-14T20:00:26.978Z,93646.16
2022-12-14T20:02:53.707Z,93649.03
2022-12-14T20:05:20.550Z,93650.31
2022-12-14T20:07:47.170Z,93646.91
2022-12-14T20:10:17.210Z,93649.81
2022-12-14T20:12:48.612Z,93629.41
2022-12-14T20:15:15.193Z,93638.97
2022-12-14T20:17:44.801Z,93646.13
2022-12-14T20:20:14.211Z,93645.97
2022-12-14T20:22:40.758Z,93650.91
2022-12-14T20:25:07.593Z,93656.56
2022-12-14T20:27:40.298Z,93642.78
2022-12-14T20:30:08.320Z,93645.44
2022-12-14T20:32:34.823Z,93647.59
2022-12-14T20:35:10.653Z,93652.41
2022-12-14T20:37:37.291Z,93661.53
2022-12-14T20:40:04.519Z,93660.66
2022-12-14T20:42:31.024Z,93651.50
2022-12-14T20:44:59.494Z,93649.13
2022-12-14T20:47:29.155Z,93646.72
2022-12-14T20:49:55.710Z,93642.25
2022-12-14T20:52:22.248Z,93649.31
2022-12-14T20:54:49.120Z,93657.06
2022-12-14T20:57:15.766Z,93664.19
2022-12-14T20:59:42.325Z,93669.97
2022-12-14T21:02:26.892Z,93662.50
2022-12-14T21:04:53.536Z,93666.78
2022-12-14T21:07:24.329Z,93662.63
2022-12-14T21:09:52.756Z,93670.78
2022-12-14T21:12:22.434Z,93665.56
2022-12-14T21:14:56.042Z,93667.19
2022-12-14T21:17:24.829Z,93666.47
2022-12-14T21:19:51.725Z,93653.41
2022-12-14T21:22:23.742Z,93664.09
2022-12-14T21:25:07.147Z,93653.78
2022-12-14T21:27:36.111Z,93674.88
2022-12-14T21:30:02.765Z,93665.38
2022-12-14T21:32:29.786Z,93667.59
2022-12-14T21:34:56.570Z,93671.09
2022-12-14T21:37:23.396Z,93670.06
2022-12-14T21:39:54.464Z,93657.06
2022-12-14T21:42:25.298Z,93666.53
2022-12-14T21:44:53.396Z,93662.31
2022-12-14T21:47:25.064Z,93654.34
2022-12-14T21:49:51.594Z,93662.16
2022-12-14T21:52:20.675Z,93666.50
2022-12-14T21:54:47.229Z,93659.47
2022-12-14T21:57:18.771Z,93656.50
2022-12-14T21:59:45.334Z,93658.66
2022-12-14T22:02:21.047Z,93656.59
2022-12-14T22:04:48.132Z,93657.66
2022-12-14T22:07:19.563Z,93661.69
2022-12-14T22:09:49.614Z,93650.22
2022-12-14T22:12:17.951Z,93654.03
2022-12-14T22:14:44.568Z,93652.25
2022-12-14T22:17:11.647Z,93662.59
2022-12-14T22:19:38.357Z,93654.69
2022-12-14T22:22:05.353Z,93661.47
2022-12-14T22:24:32.154Z,93662.91
2022-12-14T22:26:58.727Z,93657.88
2022-12-14T22:29:25.441Z,93656.19
2022-12-14T22:31:52.034Z,93661.84
2022-12-14T22:34:23.041Z,93654.78
2022-12-14T22:36:50.998Z,93652.09
2022-12-14T22:39:18.645Z,93666.59
2022-12-14T22:41:45.639Z,93668.88
2022-12-14T22:44:12.646Z,93664.16
2022-12-14T22:46:40.345Z,93654.81
2022-12-14T22:49:07.108Z,93652.72
2022-12-14T22:51:33.613Z,93661.69
2022-12-14T22:54:00.459Z,93671.91
2022-12-14T22:56:43.558Z,93662.75
2022-12-14T22:59:15.063Z,93666.88
2022-12-14T23:01:42.589Z,93664.56
2022-12-14T23:04:11.119Z,93659.81
2022-12-14T23:06:37.793Z,93658.59
2022-12-14T23:09:04.487Z,93660.53
2022-12-14T23:11:31.417Z,93655.38
2022-12-14T23:13:57.910Z,93662.94
2022-12-14T23:16:24.466Z,93664.97
2022-12-14T23:18:51.001Z,93668.97
2022-12-14T23:21:17.563Z,93665.81
2022-12-14T23:23:45.189Z,93660.75
2022-12-14T23:26:11.679Z,93662.94
2022-12-14T23:28:38.427Z,93674.34
2022-12-14T23:31:05.458Z,93672.16
2022-12-14T23:33:35.353Z,93673.31
2022-12-14T23:36:01.836Z,93677.84
2022-12-14T23:38:28.350Z,93680.31
2022-12-14T23:41:01.546Z,93684.38
2022-12-14T23:43:28.474Z,93685.84
2022-12-14T23:45:55.269Z,93688.25
2022-12-14T23:48:22.074Z,93685.69
2022-12-14T23:50:48.629Z,93674.94
2022-12-14T23:53:15.205Z,93679.31
2022-12-14T23:55:41.803Z,93682.06
2022-12-14T23:58:08.274Z,93669.28
